Time;durP1;ratioP1;P1;durP2;ratioP2;P2;SDS_P1;SDS_P2;PMS_P1;PMS_P2;Temp;Humidity;BMP_temperature;BMP_pressure;BME280_temperature;BME280_humidity;BME280_pressure;Samples;Min_cycle;Max_cycle;Signal;HPM_P1;HPM_P2
2023/05/17 00:02:55;;;;;;;13.70;5.82;;;;;;;7.10;100.00;102235.25;5054946;28;20086;-74
2023/05/17 00:08:42;;;;;;;11.05;5.25;;;;;;;7.05;100.00;102226.91;5054681;28;20309;-72
2023/05/17 00:11:07;;;;;;;18.42;5.65;;;;;;;7.00;100.00;102231.88;5053971;28;20037;-74
2023/05/17 00:16:54;;;;;;;14.13;5.57;;;;;;;6.96;100.00;102229.69;5054492;28;20070;-74
2023/05/17 00:22:42;;;;;;;11.70;5.38;;;;;;;6.98;100.00;102238.34;5054952;28;20528;-74
2023/05/17 00:28:29;;;;;;;14.98;5.05;;;;;;;6.97;100.00;102234.03;5054958;28;20056;-76
2023/05/17 00:34:16;;;;;;;12.73;5.70;;;;;;;6.88;100.00;102233.09;5055304;28;20539;-75
2023/05/17 00:36:41;;;;;;;16.23;5.78;;;;;;;6.92;100.00;102239.78;5036284;28;20060;-77
2023/05/17 00:42:29;;;;;;;11.68;5.30;;;;;;;6.88;100.00;102229.63;5054653;28;20413;-75
2023/05/17 00:48:16;;;;;;;17.33;5.45;;;;;;;6.90;100.00;102227.63;5054474;28;20124;-73
2023/05/17 00:54:04;;;;;;;16.52;5.57;;;;;;;6.89;100.00;102226.81;5054613;28;20553;-73
2023/05/17 00:59:51;;;;;;;18.45;6.32;;;;;;;6.82;100.00;102223.09;5054492;28;20044;-75
2023/05/17 01:02:16;;;;;;;18.33;5.93;;;;;;;6.78;100.00;102217.25;5053695;28;20056;-75
2023/05/17 01:08:04;;;;;;;13.25;6.03;;;;;;;6.80;100.00;102223.25;5054028;28;20374;-74
2023/05/17 01:13:54;;;;;;;15.23;6.00;;;;;;;6.81;100.00;102224.09;5054614;28;20087;-75
2023/05/17 01:20:00;;;;;;;20.75;7.60;;;;;;;6.77;100.00;102212.09;5054301;28;20063;-75
2023/05/17 01:32:32;;;;;;;12.32;6.65;;;;;;;6.76;100.00;102232.53;5054304;28;20078;-74
2023/05/17 01:34:57;;;;;;;24.77;7.60;;;;;;;6.73;100.00;102221.38;5052998;28;20454;-75
2023/05/17 01:37:22;;;;;;;12.85;5.63;;;;;;;6.69;100.00;102215.53;5053846;28;20067;-76
2023/05/17 01:39:48;;;;;;;18.10;5.82;;;;;;;6.71;100.00;102215.38;5053192;28;20143;-75
2023/05/17 01:42:23;;;;;;;18.00;6.05;;;;;;;6.72;100.00;102225.03;5053527;28;20028;-74
2023/05/17 01:45:13;;;;;;;18.35;6.05;;;;;;;6.74;100.00;102223.06;5035350;28;20548;-74
2023/05/17 01:47:47;;;;;;;23.45;5.93;;;;;;;6.75;100.00;102224.72;5052620;28;20049;-74
2023/05/17 01:50:16;;;;;;;17.05;7.45;;;;;;;6.70;100.00;102227.00;5053561;28;20029;-74
2023/05/17 01:52:51;;;;;;;18.65;7.35;;;;;;;6.69;100.00;102217.38;5035160;28;20102;-74
2023/05/17 01:55:32;;;;;;;23.92;6.75;;;;;;;6.69;100.00;102222.69;5053497;28;20033;-74
2023/05/17 01:57:58;;;;;;;17.00;7.03;;;;;;;6.67;100.00;102227.31;5053652;28;20105;-75
2023/05/17 02:00:26;;;;;;;27.52;6.85;;;;;;;6.65;100.00;102231.94;5034977;28;20128;-75
2023/05/17 02:02:51;;;;;;;21.85;6.78;;;;;;;6.61;100.00;102225.25;5035147;28;20048;-74
2023/05/17 02:05:16;;;;;;;15.65;6.72;;;;;;;6.53;100.00;102224.22;5034849;28;20509;-74
2023/05/17 02:07:42;;;;;;;17.23;7.15;;;;;;;6.49;100.00;102222.84;5053145;28;20457;-73
2023/05/17 02:10:07;;;;;;;22.33;6.20;;;;;;;6.51;100.00;102228.84;5053249;28;20032;-74
2023/05/17 02:12:32;;;;;;;16.83;6.65;;;;;;;6.48;100.00;102218.53;5034763;28;20726;-74
2023/05/17 02:18:20;;;;;;;18.58;6.50;;;;;;;6.44;100.00;102225.13;5053201;28;20393;-74
2023/05/17 02:20:46;;;;;;;15.27;6.80;;;;;;;6.44;100.00;102211.84;5034671;28;20017;-75
2023/05/17 02:23:11;;;;;;;26.98;8.27;;;;;;;6.45;100.00;102212.69;5035301;28;20036;-74
2023/05/17 02:25:36;;;;;;;20.90;8.15;;;;;;;6.38;100.00;102212.47;5034586;28;20037;-74
2023/05/17 02:28:01;;;;;;;20.80;6.72;;;;;;;6.38;100.00;102216.94;5034946;28;20025;-75
2023/05/17 02:30:27;;;;;;;18.08;7.10;;;;;;;6.40;100.00;102210.50;5052202;28;20051;-75
2023/05/17 02:32:52;;;;;;;28.02;7.40;;;;;;;6.43;100.00;102209.34;5052912;28;20044;-74
2023/05/17 02:35:18;;;;;;;14.30;6.10;;;;;;;6.45;100.00;102218.84;5052991;28;20037;-74
2023/05/17 02:37:43;;;;;;;24.25;6.78;;;;;;;6.53;100.00;102237.50;5052294;28;20409;-74
2023/05/17 02:40:09;;;;;;;18.98;6.70;;;;;;;6.50;100.00;102234.31;5053257;28;20033;-75
2023/05/17 02:42:35;;;;;;;16.17;6.90;;;;;;;6.51;100.00;102231.50;5052301;28;20036;-75
2023/05/17 02:45:01;;;;;;;20.60;6.75;;;;;;;6.49;100.00;102233.47;5052437;28;20028;-75
2023/05/17 02:47:26;;;;;;;21.88;7.55;;;;;;;6.56;100.00;102240.81;5052787;28;20116;-73
2023/05/17 02:49:51;;;;;;;24.42;8.10;;;;;;;6.63;100.00;102239.22;5051745;28;20098;-74
2023/05/17 02:55:38;;;;;;;24.23;7.45;;;;;;;6.72;100.00;102233.84;5053029;28;20048;-75
2023/05/17 03:01:25;;;;;;;19.33;7.82;;;;;;;6.88;100.00;102248.22;5052144;28;20806;-74
2023/05/17 03:07:12;;;;;;;13.95;7.55;;;;;;;6.94;100.00;102248.47;5052884;28;20508;-74
2023/05/17 03:09:37;;;;;;;15.73;7.10;;;;;;;7.02;100.00;102250.34;5033650;28;20128;-74
2023/05/17 03:15:28;;;;;;;22.48;8.02;;;;;;;7.11;100.00;102260.88;5052584;28;20386;-74
2023/05/17 03:17:54;;;;;;;24.38;8.02;;;;;;;7.12;100.00;102261.69;5052403;28;20056;-75
2023/05/17 03:20:19;;;;;;;23.08;8.43;;;;;;;7.17;100.00;102262.06;5033859;28;20048;-74
2023/05/17 03:22:47;;;;;;;23.58;7.53;;;;;;;7.18;100.00;102262.91;5052301;28;20044;-74
2023/05/17 03:25:12;;;;;;;20.80;6.95;;;;;;;7.24;100.00;102268.44;5051929;28;20123;-75
2023/05/17 03:27:37;;;;;;;18.60;7.75;;;;;;;7.24;100.00;102262.28;5051176;28;20179;-75
2023/05/17 03:33:24;;;;;;;21.02;7.80;;;;;;;7.33;100.00;102271.97;5053558;28;20074;-74
2023/05/17 03:39:11;;;;;;;21.42;7.35;;;;;;;7.35;100.00;102272.66;5054948;28;20071;-75
2023/05/17 03:44:59;;;;;;;22.23;7.97;;;;;;;7.40;100.00;102283.66;5055053;28;20385;-76
2023/05/17 03:47:24;;;;;;;21.75;7.15;;;;;;;7.42;100.00;102284.31;5054625;28;20083;-75
2023/05/17 03:49:50;;;;;;;20.50;7.43;;;;;;;7.33;100.00;102279.97;5054873;28;20466;-76
2023/05/17 03:52:15;;;;;;;19.92;8.63;;;;;;;7.35;100.00;102286.78;5054438;28;20052;-75
2023/05/17 03:54:40;;;;;;;19.33;7.43;;;;;;;7.27;100.00;102285.91;5054833;28;20021;-74
2023/05/17 03:57:06;;;;;;;20.13;8.32;;;;;;;7.26;100.00;102289.56;5055085;28;20025;-73
2023/05/17 03:59:31;;;;;;;19.80;7.57;;;;;;;7.18;100.00;102286.84;5054323;28;20485;-74
2023/05/17 04:05:18;;;;;;;21.80;7.80;;;;;;;7.12;100.00;102288.28;5055235;28;20051;-73
2023/05/17 04:07:44;;;;;;;27.45;8.55;;;;;;;7.13;100.00;102298.78;5054761;28;20021;-74
2023/05/17 04:13:31;;;;;;;25.92;7.65;;;;;;;7.12;100.00;102281.16;5054876;28;20516;-75
2023/05/17 04:23:27;;;;;;;25.70;7.80;;;;;;;7.38;100.00;102307.75;5054977;28;20048;-74
2023/05/17 04:25:52;;;;;;;22.80;7.50;;;;;;;7.46;100.00;102306.97;5054507;28;20082;-74
2023/05/17 04:28:18;;;;;;;22.67;7.77;;;;;;;7.49;100.00;102295.16;5054188;28;20029;-74
2023/05/17 04:30:46;;;;;;;23.88;8.45;;;;;;;7.66;100.00;102312.91;5053456;28;20755;-74
2023/05/17 04:36:33;;;;;;;23.02;8.25;;;;;;;7.79;100.00;102305.31;5054617;28;20043;-75
2023/05/17 04:42:20;;;;;;;25.25;8.38;;;;;;;8.08;100.00;102315.59;5054617;28;20103;-74
2023/05/17 04:44:45;;;;;;;16.02;7.28;;;;;;;8.19;100.00;102325.97;5052966;28;20072;-75
2023/05/17 04:50:32;;;;;;;20.52;8.30;;;;;;;8.55;100.00;102328.41;5054191;28;20044;-73
2023/05/17 04:56:19;;;;;;;19.33;7.35;;;;;;;8.92;100.00;102336.78;5054595;28;20128;-73
2023/05/17 05:02:06;;;;;;;21.35;8.25;;;;;;;9.54;100.00;102353.09;5054250;28;20048;-72
2023/05/17 05:07:53;;;;;;;26.25;7.30;;;;;;;10.26;100.00;102360.22;5054224;28;20504;-74
2023/05/17 05:13:41;;;;;;;18.10;5.90;;;;;;;10.94;100.00;102360.28;5054319;28;20044;-74
2023/05/17 05:19:28;;;;;;;21.75;7.28;;;;;;;11.64;100.00;102370.72;5054645;28;20047;-74
2023/05/17 05:25:15;;;;;;;19.50;6.68;;;;;;;12.11;100.00;102380.28;5054112;28;20397;-73
2023/05/17 05:31:02;;;;;;;16.50;6.25;;;;;;;11.82;100.00;102391.00;5053848;28;20417;-74
2023/05/17 05:33:27;;;;;;;23.30;6.95;;;;;;;11.78;100.00;102387.84;5052910;28;20049;-74
2023/05/17 05:39:15;;;;;;;20.85;7.28;;;;;;;13.06;100.00;102395.41;5053712;28;20827;-74
2023/05/17 05:45:02;;;;;;;20.38;6.05;;;;;;;14.11;100.00;102390.81;5053474;28;20265;-74
2023/05/17 05:50:49;;;;;;;19.90;5.97;;;;;;;15.12;100.00;102405.28;5053829;28;20546;-74
2023/05/17 05:56:36;;;;;;;14.98;5.50;;;;;;;16.30;100.00;102414.28;5052596;28;20043;-75
2023/05/17 06:02:25;;;;;;;13.25;5.47;;;;;;;16.98;95.10;102425.38;5053637;28;20782;-73
2023/05/17 06:04:50;;;;;;;19.15;5.53;;;;;;;17.50;93.78;102431.44;5034804;28;20076;-73
2023/05/17 06:10:37;;;;;;;10.48;4.75;;;;;;;18.51;85.72;102439.19;5053324;28;20048;-73
2023/05/17 06:16:24;;;;;;;17.58;5.15;;;;;;;18.97;78.59;102445.06;5049166;28;20315;-74
2023/05/17 06:22:11;;;;;;;15.57;4.90;;;;;;;19.80;69.81;102450.44;5053030;28;20044;-73
2023/05/17 06:28:01;;;;;;;13.57;4.15;;;;;;;20.47;65.73;102460.88;5053054;28;20036;-76
2023/05/17 06:33:48;;;;;;;12.65;3.83;;;;;;;20.36;59.00;102459.81;5052869;28;20110;-73
2023/05/17 06:36:13;;;;;;;14.30;3.75;;;;;;;20.04;60.83;102468.38;5052235;28;20498;-72
2023/05/17 06:42:00;;;;;;;8.60;3.60;;;;;;;19.24;58.17;102459.06;5053171;28;20271;-72
2023/05/17 06:47:47;;;;;;;15.25;3.45;;;;;;;18.46;60.55;102465.28;5052729;28;20040;-71
2023/05/17 06:53:34;;;;;;;10.80;2.95;;;;;;;20.39;57.99;102467.47;5052330;28;20374;-74
2023/05/17 06:59:21;;;;;;;13.60;3.30;;;;;;;22.55;46.61;102470.63;5052781;28;20044;-73
2023/05/17 07:05:09;;;;;;;17.27;3.10;;;;;;;21.87;47.23;102479.19;5051986;28;20362;-73
2023/05/17 07:10:56;;;;;;;18.45;3.67;;;;;;;20.77;48.20;102476.97;5052016;28;20079;-74
2023/05/17 07:16:43;;;;;;;13.10;3.65;;;;;;;20.18;50.57;102470.81;5052317;28;20056;-71
2023/05/17 07:22:30;;;;;;;11.10;3.13;;;;;;;21.41;48.58;102494.81;5051726;28;20048;-73
2023/05/17 07:28:17;;;;;;;14.63;3.45;;;;;;;22.64;44.04;102487.38;5052134;28;20047;-74
2023/05/17 07:34:04;;;;;;;12.55;3.38;;;;;;;23.30;41.87;102498.19;5052482;28;20059;-74
2023/05/17 07:39:51;;;;;;;15.05;3.60;;;;;;;26.14;36.00;102506.66;5051311;28;20076;-73
2023/05/17 07:45:39;;;;;;;16.65;4.00;;;;;;;25.00;36.81;102509.66;5052036;28;20048;-74
2023/05/17 07:51:27;;;;;;;15.18;3.38;;;;;;;23.34;37.85;102511.06;5051994;28;20091;-75
2023/05/17 07:57:14;;;;;;;13.15;3.55;;;;;;;21.33;41.53;102514.25;5052070;28;20129;-74
2023/05/17 08:03:01;;;;;;;10.60;3.03;;;;;;;20.89;43.59;102516.66;5051675;28;20274;-73
2023/05/17 08:08:48;;;;;;;12.07;3.42;;;;;;;25.85;34.79;102526.47;5051864;28;20719;-73
2023/05/17 08:14:35;;;;;;;8.15;2.83;;;;;;;28.33;28.45;102526.09;5051644;28;20668;-73
2023/05/17 08:20:22;;;;;;;10.23;2.97;;;;;;;27.31;28.46;102531.69;5054437;28;20051;-73
2023/05/17 08:26:09;;;;;;;10.25;2.60;;;;;;;23.32;35.13;102529.59;5054920;28;20274;-73
2023/05/17 08:31:58;;;;;;;12.18;2.85;;;;;;;27.37;28.52;102524.22;5054819;28;20289;-73
2023/05/17 08:37:45;;;;;;;9.80;2.97;;;;;;;29.26;24.95;102526.53;5054730;28;20040;-75
2023/05/17 08:43:33;;;;;;;7.15;2.72;;;;;;;30.19;25.34;102538.47;5054504;28;20322;-73
2023/05/17 08:49:24;;;;;;;7.70;2.28;;;;;;;30.78;23.42;102540.31;5054991;28;20056;-73
2023/05/17 08:55:15;;;;;;;9.55;3.40;;;;;;;26.37;27.50;102549.16;5055118;28;20052;-74
2023/05/17 09:01:05;;;;;;;9.27;2.63;;;;;;;23.16;32.69;102538.72;5054639;28;20056;-74
2023/05/17 09:06:52;;;;;;;13.77;2.75;;;;;;;23.45;32.51;102533.84;5054613;28;20063;-74
2023/05/17 09:16:12;;;;;;;10.05;2.67;;;;;;;22.14;36.31;102536.56;5054572;28;20443;-73
2023/05/17 09:21:59;;;;;;;8.23;2.38;;;;;;;21.71;36.56;102535.34;5054265;28;20059;-75
2023/05/17 09:27:46;;;;;;;10.93;2.63;;;;;;;20.78;40.03;102536.53;5054509;28;20040;-74
2023/05/17 09:33:41;;;;;;;9.95;2.88;;;;;;;21.52;37.71;102523.03;5054069;28;20094;-75
2023/05/17 09:39:31;;;;;;;8.50;2.35;;;;;;;22.64;35.01;102533.72;5054347;28;20055;-75
2023/05/17 09:45:22;;;;;;;10.05;2.75;;;;;;;21.61;39.56;102532.41;5053568;28;20075;-75
2023/05/17 09:51:09;;;;;;;7.43;2.42;;;;;;;21.50;37.15;102533.34;5053851;28;20052;-74
2023/05/17 09:56:58;;;;;;;10.68;2.80;;;;;;;21.50;35.41;102526.00;5054082;28;20052;-74
2023/05/17 10:02:48;;;;;;;9.95;2.88;;;;;;;21.07;38.35;102531.94;5053920;28;20095;-76
2023/05/17 10:08:37;;;;;;;13.32;3.00;;;;;;;21.06;39.11;102524.88;5053930;28;20047;-75
2023/05/17 10:14:33;;;;;;;17.65;2.65;;;;;;;20.69;38.74;102525.22;5053530;28;20044;-74
2023/05/17 10:20:20;;;;;;;9.48;2.45;;;;;;;20.29;39.36;102527.88;5053480;28;20091;-76
2023/05/17 10:26:11;;;;;;;11.95;2.60;;;;;;;20.09;42.04;102522.78;5053674;28;20071;-77
2023/05/17 10:32:03;;;;;;;9.43;2.60;;;;;;;20.57;40.63;102523.63;5053338;28;20079;-75
2023/05/17 10:37:50;;;;;;;10.38;2.58;;;;;;;19.79;40.45;102522.06;5053314;28;20075;-77
2023/05/17 10:43:38;;;;;;;6.65;2.22;;;;;;;21.66;36.36;102521.59;5052612;28;20059;-72
2023/05/17 10:49:30;;;;;;;11.52;3.08;;;;;;;20.43;38.09;102517.59;5053409;28;20124;-72
2023/05/17 10:55:19;;;;;;;9.18;2.78;;;;;;;19.72;41.27;102516.75;5053111;28;20043;-73
2023/05/17 11:01:07;;;;;;;9.70;2.28;;;;;;;20.18;36.93;102506.97;5052553;28;20048;-72
2023/05/17 11:07:17;;;;;;;9.00;3.08;;;;;;;20.35;39.42;102507.06;5052366;28;20152;-73
2023/05/17 11:13:22;;;;;;;6.80;2.35;;;;;;;19.97;38.86;102483.13;5052390;28;20057;-73
2023/05/17 11:16:06;;;;;;;7.75;2.65;;;;;;;20.02;40.18;102503.09;5034608;28;20017;-73
2023/05/17 11:21:54;;;;;;;7.50;2.28;;;;;;;19.86;41.13;102492.09;5052160;28;20048;-74
2023/05/17 11:27:46;;;;;;;10.15;2.78;;;;;;;20.15;39.17;102506.59;5051963;28;20116;-73
2023/05/17 11:33:44;;;;;;;10.40;3.13;;;;;;;20.27;39.35;102499.28;5052169;28;20127;-72
2023/05/17 11:39:31;;;;;;;8.05;2.47;;;;;;;20.42;39.76;102503.19;5052043;28;20397;-74
2023/05/17 11:45:18;;;;;;;8.52;2.53;;;;;;;21.13;37.95;102492.09;5052024;28;20350;-73
2023/05/17 11:51:06;;;;;;;9.50;3.17;;;;;;;21.29;36.80;102504.91;5052124;28;20044;-73
2023/05/17 11:56:54;;;;;;;7.32;2.03;;;;;;;20.95;36.52;102504.00;5055870;28;20099;-73
2023/05/17 12:02:40;;;;;;;10.00;2.40;;;;;;;20.52;36.58;102493.59;5055403;28;20047;-73
2023/05/17 12:08:31;;;;;;;10.32;2.10;;;;;;;20.73;36.15;102488.34;5055789;28;20066;-73
2023/05/17 12:14:19;;;;;;;5.65;1.98;;;;;;;21.60;35.41;102490.75;5054898;28;20036;-73
2023/05/17 12:20:07;;;;;;;9.73;2.80;;;;;;;21.61;36.22;102492.41;5054805;28;20052;-73
2023/05/17 12:26:09;;;;;;;8.57;2.40;;;;;;;21.41;37.09;102483.91;5055206;28;20048;-72
2023/05/17 12:31:58;;;;;;;7.85;2.42;;;;;;;21.48;34.09;102481.03;5054886;28;20071;-74
2023/05/17 12:34:24;;;;;;;8.68;2.13;;;;;;;21.43;33.91;102492.66;5052613;28;20044;-75
2023/05/17 12:40:12;;;;;;;8.23;2.10;;;;;;;21.65;34.77;102490.00;5054858;28;20044;-75
2023/05/17 12:46:21;;;;;;;8.98;2.40;;;;;;;22.92;33.07;102497.25;5055640;28;20086;-76
2023/05/17 12:52:09;;;;;;;8.50;3.20;;;;;;;22.44;31.55;102503.47;5054621;28;20148;-74
2023/05/17 12:58:01;;;;;;;7.60;2.25;;;;;;;24.32;30.40;102494.34;5054436;28;20082;-77
2023/05/17 13:03:51;;;;;;;5.55;2.30;;;;;;;25.84;27.47;102500.16;5055063;28;20108;-74
2023/05/17 13:09:49;;;;;;;8.65;2.45;;;;;;;24.16;29.62;102498.88;5054061;28;20100;-70
2023/05/17 13:15:36;;;;;;;7.50;2.40;;;;;;;23.85;29.45;102480.63;5054806;28;20043;-73
2023/05/17 13:21:23;;;;;;;8.23;2.13;;;;;;;23.02;30.37;102482.91;5054221;28;20039;-73
2023/05/17 13:27:12;;;;;;;5.05;2.08;;;;;;;22.21;29.98;102483.53;5053955;28;20060;-71
2023/05/17 13:32:58;;;;;;;7.93;2.53;;;;;;;21.11;35.07;102480.63;5053873;28;20044;-71
2023/05/17 13:38:45;;;;;;;11.05;2.30;;;;;;;19.77;36.19;102469.91;5053739;28;20270;-71
2023/05/17 13:44:32;;;;;;;7.03;2.67;;;;;;;19.24;38.10;102435.47;5053896;28;20322;-71
2023/05/17 13:50:20;;;;;;;8.95;2.78;;;;;;;19.01;39.04;102468.75;5053545;28;20051;-72
2023/05/17 13:56:07;;;;;;;7.93;2.80;;;;;;;18.82;39.10;102454.44;5053955;28;20060;-73
2023/05/17 13:58:33;;;;;;;9.45;2.50;;;;;;;18.76;37.88;102468.88;5052654;28;20045;-74
2023/05/17 14:04:20;;;;;;;8.88;2.83;;;;;;;18.60;38.48;102465.97;5053544;28;20083;-73
2023/05/17 14:10:08;;;;;;;12.20;2.70;;;;;;;18.64;36.82;102468.00;5053009;28;20040;-72
2023/05/17 14:15:57;;;;;;;8.68;2.20;;;;;;;18.26;37.19;102469.06;5053511;28;20047;-74
2023/05/17 14:21:44;;;;;;;12.48;2.97;;;;;;;18.09;38.36;102465.28;5053503;28;20047;-72
2023/05/17 14:24:10;;;;;;;8.45;2.67;;;;;;;18.12;37.50;102467.53;5034528;28;20041;-73
2023/05/17 14:29:57;;;;;;;7.57;2.58;;;;;;;18.05;40.29;102461.38;5052657;28;20176;-73
2023/05/17 14:35:44;;;;;;;7.40;2.35;;;;;;;18.07;39.75;102458.44;5052915;28;20087;-71
2023/05/17 14:41:32;;;;;;;11.05;2.78;;;;;;;18.15;39.24;102463.53;5053277;28;20104;-73
2023/05/17 14:47:20;;;;;;;8.50;2.90;;;;;;;17.84;40.11;102464.47;5053178;28;20065;-75
2023/05/17 14:49:46;;;;;;;8.43;2.50;;;;;;;17.79;40.39;102469.75;5034512;28;20528;-73
2023/05/17 14:55:32;;;;;;;8.82;2.50;;;;;;;17.73;36.54;102473.34;5052904;28;20059;-75
2023/05/17 15:01:19;;;;;;;8.52;2.38;;;;;;;17.71;39.97;102470.03;5052047;28;20051;-73
2023/05/17 15:07:07;;;;;;;6.97;2.30;;;;;;;17.71;35.91;102478.16;5052530;28;20067;-75
2023/05/17 15:12:55;;;;;;;7.13;3.03;;;;;;;17.57;38.82;102485.50;5052674;28;20125;-76
2023/05/17 15:18:43;;;;;;;10.48;2.65;;;;;;;17.50;37.23;102485.56;5052205;28;20060;-73
2023/05/17 15:21:11;;;;;;;10.00;3.05;;;;;;;17.41;36.29;102484.16;5051140;28;20049;-75
2023/05/17 15:26:58;;;;;;;11.05;3.10;;;;;;;17.42;38.06;102475.00;5052017;28;20501;-73
2023/05/17 15:32:45;;;;;;;10.90;2.90;;;;;;;17.39;39.95;102475.44;5055359;28;20358;-72
2023/05/17 15:38:32;;;;;;;9.75;3.22;;;;;;;17.31;37.31;102462.19;5055896;28;20400;-72
2023/05/17 15:41:05;;;;;;;9.27;2.87;;;;;;;17.17;38.14;102471.44;5055634;28;20037;-75
2023/05/17 15:43:33;;;;;;;10.73;2.85;;;;;;;16.96;37.16;102462.59;5037730;28;20361;-77
2023/05/17 15:49:20;;;;;;;8.40;2.83;;;;;;;17.02;39.31;102464.44;5055908;28;20043;-77
2023/05/17 15:55:08;;;;;;;8.95;2.45;;;;;;;16.93;36.92;102451.41;5055741;28;20047;-72
2023/05/17 15:57:34;;;;;;;7.85;2.10;;;;;;;17.06;34.09;102472.97;5052913;28;20051;-73
2023/05/17 16:03:21;;;;;;;13.48;2.50;;;;;;;17.07;35.95;102471.09;5055889;28;20087;-74
2023/05/17 16:09:08;;;;;;;11.27;2.67;;;;;;;16.93;37.87;102471.16;5055617;28;20569;-73
2023/05/17 16:14:55;;;;;;;10.40;2.92;;;;;;;16.86;37.11;102456.84;5055276;28;20090;-74
2023/05/17 16:20:42;;;;;;;5.57;3.00;;;;;;;16.87;41.03;102452.28;5054962;28;20500;-73
2023/05/17 16:26:30;;;;;;;8.60;2.78;;;;;;;16.68;38.51;102454.84;5055040;28;20084;-73
2023/05/17 16:28:55;;;;;;;8.07;2.47;;;;;;;16.57;38.69;102452.81;5053749;28;20073;-73
2023/05/17 16:34:43;;;;;;;14.82;2.88;;;;;;;16.36;39.52;102455.78;5054841;28;20129;-72
2023/05/17 16:40:30;;;;;;;13.30;2.75;;;;;;;16.13;41.20;102453.56;5053089;28;20040;-73
2023/05/17 16:46:23;;;;;;;10.00;2.72;;;;;;;16.26;40.59;102464.34;5054757;28;20598;-71
2023/05/17 16:52:12;;;;;;;8.60;2.58;;;;;;;16.24;40.03;102458.31;5054972;28;20043;-73
2023/05/17 16:57:59;;;;;;;9.05;3.13;;;;;;;15.98;40.04;102455.69;5054879;28;20086;-72
2023/05/17 17:03:46;;;;;;;8.38;2.85;;;;;;;16.01;44.69;102464.19;5054619;28;20124;-73
2023/05/17 17:09:33;;;;;;;11.55;3.50;;;;;;;16.05;45.73;102451.91;5054085;28;20047;-74
2023/05/17 17:15:20;;;;;;;8.32;3.10;;;;;;;15.95;43.97;102466.91;5054177;28;20040;-73
2023/05/17 17:21:07;;;;;;;8.25;2.50;;;;;;;15.90;42.14;102472.06;5054265;28;20063;-73
2023/05/17 17:26:54;;;;;;;11.52;3.58;;;;;;;15.75;41.29;102478.53;5054285;28;20123;-73
2023/05/17 17:29:19;;;;;;;5.60;2.80;;;;;;;15.72;41.19;102470.84;5053262;28;20125;-71
2023/05/17 17:35:07;;;;;;;15.43;4.10;;;;;;;15.60;42.54;102477.88;5054063;28;20385;-70
2023/05/17 17:40:54;;;;;;;10.30;2.40;;;;;;;15.50;43.87;102480.13;5053428;28;20532;-72
2023/05/17 17:46:41;;;;;;;9.05;2.50;;;;;;;15.23;45.07;102475.75;5053588;28;20091;-72
2023/05/17 17:52:28;;;;;;;7.72;2.97;;;;;;;14.83;46.95;102467.56;5051845;28;20406;-72
2023/05/17 17:58:16;;;;;;;8.88;3.17;;;;;;;14.60;48.88;102465.22;5053077;28;20044;-72
2023/05/17 18:04:04;;;;;;;9.02;2.72;;;;;;;14.64;46.95;102479.91;5053714;28;20118;-75
2023/05/17 18:06:29;;;;;;;7.95;2.83;;;;;;;14.64;47.50;102479.09;5053374;28;20021;-74
2023/05/17 18:12:17;;;;;;;10.75;4.38;;;;;;;14.47;50.52;102479.44;5053327;28;20055;-76
2023/05/17 18:14:42;;;;;;;12.88;4.63;;;;;;;14.46;49.96;102469.72;5053244;28;20032;-74
2023/05/17 18:20:30;;;;;;;20.80;11.52;;;;;;;14.26;51.77;102476.81;5053561;28;20044;-75
2023/05/17 18:22:55;;;;;;;8.55;3.10;;;;;;;14.14;52.05;102470.28;5052387;28;20110;-74
2023/05/17 18:25:22;;;;;;;10.73;3.30;;;;;;;14.08;52.06;102471.09;5035495;28;20112;-75
2023/05/17 18:27:47;;;;;;;7.90;3.58;;;;;;;13.99;52.36;102461.53;5034818;28;20744;-75
2023/05/17 18:33:34;;;;;;;9.43;3.75;;;;;;;13.88;54.52;102471.81;5053359;28;20075;-74
2023/05/17 18:39:21;;;;;;;12.80;4.30;;;;;;;13.64;56.27;102472.22;5046999;28;20049;-74
2023/05/17 18:45:09;;;;;;;11.10;3.47;;;;;;;13.44;55.74;102474.72;5052879;28;20448;-74
2023/05/17 18:50:56;;;;;;;12.32;3.83;;;;;;;13.10;58.26;102479.94;5052345;28;20594;-74
2023/05/17 18:56:44;;;;;;;16.23;8.02;;;;;;;12.75;61.78;102478.94;5052965;28;20048;-73
2023/05/17 18:59:09;;;;;;;11.85;4.53;;;;;;;12.66;63.63;102489.75;5034709;28;20029;-74
2023/05/17 19:04:56;;;;;;;15.63;7.55;;;;;;;12.45;66.42;102481.66;5052721;28;20406;-74
2023/05/17 19:10:43;;;;;;;22.17;9.30;;;;;;;12.23;67.09;102493.28;5052556;28;20428;-73
2023/05/17 19:16:31;;;;;;;12.88;3.20;;;;;;;12.01;67.83;102487.81;5052936;28;20398;-75
2023/05/17 19:22:17;;;;;;;14.50;3.75;;;;;;;11.92;69.47;102493.44;5052629;28;20052;-73
2023/05/17 19:28:05;;;;;;;12.52;3.58;;;;;;;11.76;71.54;102502.41;5052151;28;20346;-73
2023/05/17 19:33:52;;;;;;;21.92;6.22;;;;;;;11.56;76.45;102517.31;5052265;28;20040;-73
2023/05/17 19:36:17;;;;;;;12.23;4.20;;;;;;;11.45;76.76;102508.69;5034401;28;20021;-74
2023/05/17 19:38:43;;;;;;;14.17;4.03;;;;;;;11.36;76.99;102511.63;5051008;28;20302;-72
2023/05/17 19:44:30;;;;;;;12.13;3.40;;;;;;;11.25;78.01;102514.69;5051901;28;20124;-74
2023/05/17 19:46:56;;;;;;;11.73;4.40;;;;;;;11.14;78.18;102507.91;5051788;28;20104;-73
2023/05/17 19:49:21;;;;;;;13.32;3.97;;;;;;;11.15;78.75;102515.75;5033582;28;20104;-74
2023/05/17 19:55:08;;;;;;;11.20;3.55;;;;;;;10.93;81.41;102515.72;5052234;28;20091;-74
2023/05/17 20:00:55;;;;;;;12.85;3.85;;;;;;;10.88;81.75;102528.78;5051714;28;20060;-72
2023/05/17 20:06:42;;;;;;;11.35;3.30;;;;;;;10.78;83.16;102531.69;5051987;28;20070;-77
2023/05/17 20:12:30;;;;;;;12.00;3.97;;;;;;;10.69;84.09;102530.84;5052050;28;20047;-74
2023/05/17 20:18:17;;;;;;;11.02;3.50;;;;;;;10.54;85.64;102516.56;5055561;28;20036;-73
2023/05/17 20:24:05;;;;;;;13.13;4.82;;;;;;;10.37;88.29;102518.44;5054993;28;20095;-73
2023/05/17 20:29:52;;;;;;;13.13;3.63;;;;;;;10.28;87.44;102521.31;5054748;28;20044;-76
2023/05/17 20:35:39;;;;;;;12.15;4.00;;;;;;;10.26;88.80;102517.97;5054893;28;20047;-75
2023/05/17 20:41:26;;;;;;;11.93;4.05;;;;;;;10.15;89.15;102517.28;5054902;28;20109;-74
2023/05/17 20:43:52;;;;;;;18.20;3.90;;;;;;;10.09;89.14;102512.59;5054000;28;20037;-74
2023/05/17 20:46:17;;;;;;;11.45;3.47;;;;;;;10.04;90.05;102514.94;5054674;28;20029;-73
2023/05/17 20:48:46;;;;;;;15.80;4.47;;;;;;;10.02;90.07;102516.97;5053814;28;20505;-76
2023/05/17 20:54:33;;;;;;;13.13;3.78;;;;;;;9.91;89.98;102517.31;5053858;28;20052;-77
2023/05/17 21:00:20;;;;;;;14.65;4.15;;;;;;;9.77;92.05;102528.66;5054630;28;20110;-76
2023/05/17 21:06:07;;;;;;;11.35;3.70;;;;;;;9.58;92.60;102524.50;5053484;28;20055;-74
2023/05/17 21:11:54;;;;;;;10.65;3.55;;;;;;;9.48;93.38;102526.47;5052910;28;20059;-74
2023/05/17 21:17:41;;;;;;;15.23;4.07;;;;;;;9.35;94.64;102526.97;5053548;28;20390;-73
2023/05/17 21:23:29;;;;;;;16.40;4.88;;;;;;;9.34;95.33;102527.97;5053228;28;20151;-75
2023/05/17 21:29:16;;;;;;;11.15;3.72;;;;;;;9.14;95.53;102531.91;5053036;28;20124;-73
2023/05/17 21:35:03;;;;;;;16.40;3.70;;;;;;;9.05;96.47;102530.25;5053317;28;20087;-72
2023/05/17 21:40:50;;;;;;;12.98;3.80;;;;;;;8.92;97.64;102528.84;5053579;28;20083;-72
2023/05/17 21:43:15;;;;;;;11.50;3.65;;;;;;;8.85;98.74;102517.16;5034366;28;20036;-72
2023/05/17 21:49:03;;;;;;;10.65;4.00;;;;;;;8.82;98.43;102517.47;5053178;28;20075;-74
2023/05/17 21:54:50;;;;;;;7.05;3.78;;;;;;;8.74;99.19;102522.78;5053364;28;20044;-76
2023/05/17 22:00:37;;;;;;;11.80;4.40;;;;;;;8.63;99.47;102528.38;5053140;28;20039;-74
2023/05/17 22:06:23;;;;;;;13.70;4.50;;;;;;;8.48;100.00;102525.50;5053169;28;20120;-75
2023/05/17 22:08:49;;;;;;;11.03;4.03;;;;;;;8.41;100.00;102515.63;5052865;28;20497;-76
2023/05/17 22:14:37;;;;;;;11.77;4.88;;;;;;;8.26;100.00;102520.66;5053014;28;20039;-72
2023/05/17 22:17:07;;;;;;;16.33;4.72;;;;;;;8.22;100.00;102525.47;5034432;28;20489;-71
2023/05/17 22:26:15;;;;;;;8.77;4.10;;;;;;;8.20;100.00;102527.47;5052766;28;20056;-74
2023/05/17 22:28:41;;;;;;;9.80;4.17;;;;;;;8.14;100.00;102522.78;5052027;28;20029;-73
2023/05/17 22:34:28;;;;;;;11.88;4.22;;;;;;;8.06;100.00;102525.34;5052634;28;20052;-74